Time;durP1;ratioP1;P1;durP2;ratioP2;P2;SDS_P1;SDS_P2;PMS_P1;PMS_P2;Temp;Humidity;BMP_temperature;BMP_pressure;BME280_temperature;BME280_humidity;BME280_pressure;Samples;Min_cycle;Max_cycle;Signal;HPM_P1;HPM_P2
2022/05/31 00:02:18;;;;;;;2.80;1.25;;;11.90;99.90;;;;;;5095925;28;20386;-61
2022/05/31 00:04:44;;;;;;;1.38;1.10;;;11.90;99.90;;;;;;5096107;28;20094;-60
2022/05/31 00:07:09;;;;;;;3.97;1.42;;;11.90;99.90;;;;;;5094866;28;20021;-59
2022/05/31 00:09:35;;;;;;;2.00;1.23;;;11.70;99.90;;;;;;5094849;28;20081;-60
2022/05/31 00:12:01;;;;;;;2.53;1.30;;;11.70;99.90;;;;;;5095041;28;20024;-60
2022/05/31 00:14:27;;;;;;;7.35;1.40;;;11.70;99.90;;;;;;5095001;28;20103;-60
2022/05/31 00:16:53;;;;;;;2.20;1.30;;;11.60;99.90;;;;;;5094410;28;20125;-60
2022/05/31 00:19:19;;;;;;;2.15;1.10;;;11.50;99.90;;;;;;5094977;28;20032;-59
2022/05/31 00:21:51;;;;;;;3.58;1.38;;;11.50;99.90;;;;;;5094968;28;20034;-59
2022/05/31 00:24:20;;;;;;;3.28;1.48;;;11.50;99.90;;;;;;5094774;28;20035;-59
2022/05/31 00:26:46;;;;;;;2.45;1.42;;;11.40;99.90;;;;;;5094432;28;20038;-59
2022/05/31 00:29:12;;;;;;;4.00;1.50;;;11.30;99.90;;;;;;5095275;28;20012;-60
2022/05/31 00:31:40;;;;;;;;;;;11.20;99.90;;;;;;5099112;28;20533;-60
2022/05/31 00:34:07;;;;;;;;;;;11.20;99.90;;;;;;5099109;28;19934;-60
2022/05/31 00:36:33;;;;;;;5.90;1.48;;;11.20;99.90;;;;;;5098659;28;20370;-60
2022/05/31 00:38:59;;;;;;;2.08;1.40;;;11.20;99.90;;;;;;5098192;28;20131;-57
2022/05/31 00:41:26;;;;;;;1.85;1.50;;;11.10;99.90;;;;;;5098646;28;20132;-59
2022/05/31 00:43:54;;;;;;;3.40;1.40;;;11.10;99.90;;;;;;5079895;28;20028;-60
2022/05/31 00:46:22;;;;;;;2.08;1.25;;;11.10;99.90;;;;;;5099078;28;20016;-62
2022/05/31 00:48:55;;;;;;;2.47;1.30;;;11.10;99.90;;;;;;5080236;28;20028;-59
2022/05/31 00:51:23;;;;;;;1.40;1.30;;;11.20;99.90;;;;;;5081345;28;20028;-60
2022/05/31 00:53:56;;;;;;;2.25;1.30;;;11.20;99.90;;;;;;5097741;28;20421;-59
2022/05/31 00:56:26;;;;;;;2.38;1.35;;;11.20;99.90;;;;;;5098948;28;20020;-60
2022/05/31 00:59:04;;;;;;;2.65;1.45;;;11.20;99.90;;;;;;5098593;28;20107;-60
2022/05/31 01:01:35;;;;;;;2.95;1.73;;;11.20;99.90;;;;;;5097920;28;20043;-59
2022/05/31 01:04:00;;;;;;;2.38;1.13;;;11.20;99.90;;;;;;5079986;28;20028;-59
2022/05/31 01:06:27;;;;;;;2.28;1.02;;;11.10;99.90;;;;;;5098232;28;20034;-56
2022/05/31 01:08:57;;;;;;;3.10;1.42;;;11.00;99.90;;;;;;5098329;28;20039;-59
2022/05/31 01:11:27;;;;;;;4.20;1.40;;;10.90;99.90;;;;;;5098509;28;20016;-59
2022/05/31 01:13:54;;;;;;;2.25;1.20;;;10.80;99.90;;;;;;5098201;28;20031;-60
2022/05/31 01:16:20;;;;;;;5.38;1.40;;;10.70;99.90;;;;;;5098668;28;20027;-59
2022/05/31 01:18:46;;;;;;;2.05;1.40;;;10.70;99.90;;;;;;5098510;28;20095;-60
2022/05/31 01:21:12;;;;;;;1.93;1.13;;;10.70;99.90;;;;;;5098307;28;20142;-60
2022/05/31 01:23:45;;;;;;;2.22;1.38;;;10.70;99.90;;;;;;5080098;28;20267;-59
2022/05/31 01:26:37;;;;;;;1.95;1.58;;;10.70;99.90;;;;;;5079439;28;20036;-60
2022/05/31 01:29:23;;;;;;;1.90;1.20;;;10.70;99.90;;;;;;5086760;28;20406;-59
2022/05/31 01:31:57;;;;;;;2.13;1.30;;;10.70;99.90;;;;;;5097695;28;20032;-59
2022/05/31 01:34:41;;;;;;;2.65;1.30;;;10.80;99.90;;;;;;5098126;28;20030;-60
2022/05/31 01:37:07;;;;;;;1.58;1.40;;;10.80;99.90;;;;;;5098139;28;20416;-60
2022/05/31 01:39:47;;;;;;;2.05;1.35;;;10.90;99.90;;;;;;5079647;28;20075;-59
2022/05/31 01:42:19;;;;;;;2.85;1.45;;;10.90;99.90;;;;;;5097163;28;20023;-60
2022/05/31 01:44:50;;;;;;;1.73;1.50;;;10.90;99.90;;;;;;5098037;28;20471;-61
2022/05/31 01:47:17;;;;;;;4.80;1.38;;;10.90;99.90;;;;;;5097778;28;20024;-62
2022/05/31 01:49:46;;;;;;;2.42;1.48;;;10.80;99.90;;;;;;5097976;28;20028;-61
2022/05/31 01:52:13;;;;;;;1.90;1.35;;;10.80;99.90;;;;;;5098588;28;20042;-61
2022/05/31 01:54:40;;;;;;;1.95;1.42;;;10.90;99.90;;;;;;5079611;28;20085;-58
2022/05/31 01:57:08;;;;;;;3.42;1.70;;;10.90;99.90;;;;;;5097536;28;20103;-60
2022/05/31 01:59:40;;;;;;;1.60;1.40;;;10.90;99.90;;;;;;5078965;28;20028;-59
2022/05/31 02:02:09;;;;;;;2.33;1.50;;;10.90;99.90;;;;;;5097267;28;20028;-61
2022/05/31 02:04:35;;;;;;;4.07;1.30;;;10.90;99.90;;;;;;5097429;28;20032;-60
2022/05/31 02:07:11;;;;;;;2.28;1.70;;;11.00;99.90;;;;;;5097468;28;20024;-61
2022/05/31 02:09:38;;;;;;;3.17;1.58;;;11.00;99.90;;;;;;5097388;28;20024;-61
2022/05/31 02:12:05;;;;;;;2.00;1.60;;;10.90;99.90;;;;;;5097382;28;20097;-60
2022/05/31 02:14:31;;;;;;;2.22;1.55;;;10.90;99.90;;;;;;5078218;28;20081;-59
2022/05/31 02:16:57;;;;;;;1.53;1.40;;;10.90;99.90;;;;;;5096777;28;20028;-60
2022/05/31 02:19:26;;;;;;;1.93;1.43;;;10.90;99.90;;;;;;5096993;28;20384;-61
2022/05/31 02:21:55;;;;;;;1.63;1.42;;;10.90;99.90;;;;;;5097735;28;20016;-60
2022/05/31 02:24:21;;;;;;;3.05;1.40;;;10.90;99.90;;;;;;5097181;28;20111;-60
2022/05/31 02:26:46;;;;;;;3.00;1.60;;;10.90;99.90;;;;;;5099833;28;20028;-57
2022/05/31 02:29:16;;;;;;;3.28;1.95;;;10.90;99.90;;;;;;5100908;28;20031;-53
2022/05/31 02:31:42;;;;;;;3.92;1.70;;;10.90;99.90;;;;;;5100043;28;20031;-55
2022/05/31 02:34:09;;;;;;;3.95;1.40;;;10.90;99.90;;;;;;5100134;28;20121;-59
2022/05/31 02:36:35;;;;;;;1.75;1.58;;;10.80;99.90;;;;;;5100399;28;20038;-58
2022/05/31 02:39:01;;;;;;;3.97;1.70;;;10.60;99.90;;;;;;5100677;28;20070;-60
2022/05/31 02:41:29;;;;;;;3.95;1.60;;;10.50;99.90;;;;;;5096994;28;20414;-61
2022/05/31 02:43:55;;;;;;;3.22;1.55;;;10.40;99.90;;;;;;5097508;28;20063;-61
2022/05/31 02:46:21;;;;;;;4.30;1.77;;;10.40;99.90;;;;;;5096999;28;20027;-59
2022/05/31 02:48:47;;;;;;;3.75;1.50;;;10.40;99.90;;;;;;5096704;28;20028;-60
2022/05/31 02:51:13;;;;;;;5.30;1.77;;;10.30;99.90;;;;;;5096428;28;20091;-59
2022/05/31 02:53:38;;;;;;;2.10;1.57;;;10.40;99.90;;;;;;5096084;28;20270;-58
2022/05/31 02:56:04;;;;;;;2.83;1.50;;;10.30;99.90;;;;;;5077836;28;20027;-57
2022/05/31 02:58:30;;;;;;;9.07;1.77;;;10.30;99.90;;;;;;5096466;28;20031;-58
2022/05/31 03:00:55;;;;;;;3.67;1.40;;;10.20;99.90;;;;;;5096345;28;20028;-58
2022/05/31 03:03:21;;;;;;;1.67;1.27;;;10.30;99.90;;;;;;5096268;28;20076;-59
2022/05/31 03:05:46;;;;;;;2.07;1.43;;;10.30;99.90;;;;;;5095674;28;20031;-59
2022/05/31 03:08:12;;;;;;;4.45;1.65;;;10.30;99.90;;;;;;5095956;28;20505;-60
2022/05/31 03:10:45;;;;;;;2.30;1.42;;;10.30;99.90;;;;;;5096651;28;20040;-60
2022/05/31 03:13:13;;;;;;;1.60;1.40;;;10.30;99.90;;;;;;5097126;28;20020;-60
2022/05/31 03:15:39;;;;;;;2.50;1.83;;;10.30;99.90;;;;;;5095849;28;20036;-61
2022/05/31 03:18:09;;;;;;;3.90;1.67;;;10.20;99.90;;;;;;5094898;28;20074;-60
2022/05/31 03:20:47;;;;;;;4.07;1.77;;;10.10;99.90;;;;;;5093379;28;20054;-61
2022/05/31 03:23:19;;;;;;;3.22;1.70;;;10.10;99.90;;;;;;5093825;28;20554;-61
2022/05/31 03:25:48;;;;;;;2.63;1.88;;;10.00;99.90;;;;;;5093774;28;20028;-60
2022/05/31 03:28:15;;;;;;;2.83;1.60;;;10.00;99.90;;;;;;5093441;28;20074;-59
2022/05/31 03:30:40;;;;;;;3.45;1.80;;;9.90;99.90;;;;;;5093895;28;20028;-61
2022/05/31 03:33:08;;;;;;;3.07;1.80;;;9.90;99.90;;;;;;5093236;28;20032;-60
2022/05/31 03:35:34;;;;;;;4.85;1.90;;;9.90;99.90;;;;;;5093178;28;20728;-61
2022/05/31 03:38:00;;;;;;;2.22;1.60;;;9.80;99.90;;;;;;5093114;28;20036;-59
2022/05/31 03:43:10;;;;;;;2.83;1.70;;;9.90;99.90;;;;;;5092820;28;20054;-61
2022/05/31 03:45:38;;;;;;;3.55;1.70;;;10.00;99.90;;;;;;5093227;28;20024;-61
2022/05/31 03:48:05;;;;;;;2.50;1.48;;;10.00;99.90;;;;;;5093150;28;20062;-61
2022/05/31 03:50:32;;;;;;;3.33;1.90;;;10.10;99.90;;;;;;5092899;28;20020;-61
2022/05/31 03:52:57;;;;;;;4.53;1.63;;;10.10;99.90;;;;;;5093152;28;20459;-59
2022/05/31 03:55:23;;;;;;;3.00;1.83;;;10.10;99.90;;;;;;5093190;28;20157;-60
2022/05/31 03:57:50;;;;;;;4.43;1.73;;;10.10;99.90;;;;;;5093595;28;20035;-58
2022/05/31 04:00:16;;;;;;;2.42;1.70;;;10.10;99.90;;;;;;5093095;28;20102;-60
2022/05/31 04:02:42;;;;;;;3.70;1.70;;;10.10;99.90;;;;;;5093101;28;20032;-59
2022/05/31 04:05:08;;;;;;;2.47;1.55;;;10.10;99.90;;;;;;5094610;28;20174;-60
2022/05/31 04:07:34;;;;;;;3.00;1.90;;;10.10;99.90;;;;;;5096725;28;20024;-61
2022/05/31 04:10:03;;;;;;;3.03;1.70;;;10.20;99.90;;;;;;5096982;28;20017;-61
2022/05/31 04:12:30;;;;;;;2.20;1.42;;;10.20;99.90;;;;;;5096826;28;20389;-60
2022/05/31 04:14:56;;;;;;;;;;;10.20;99.90;;;;;;5096848;28;20032;-61
2022/05/31 04:17:21;;;;;;;2.53;1.58;;;10.20;99.90;;;;;;5096652;28;19994;-60
2022/05/31 04:19:47;;;;;;;4.30;1.80;;;10.20;99.90;;;;;;5097012;28;20123;-61
2022/05/31 04:22:13;;;;;;;3.47;1.63;;;10.20;99.90;;;;;;5096852;28;20038;-60
2022/05/31 04:24:38;;;;;;;2.80;1.73;;;10.20;99.90;;;;;;5098136;28;20043;-61
2022/05/31 04:27:04;;;;;;;3.57;1.47;;;10.20;99.90;;;;;;5097852;28;20098;-60
2022/05/31 04:29:30;;;;;;;2.97;1.73;;;10.20;99.90;;;;;;5079245;28;20446;-61
2022/05/31 04:31:56;;;;;;;4.15;1.98;;;10.20;99.90;;;;;;5098242;28;20262;-61
2022/05/31 04:34:21;;;;;;;3.87;1.73;;;10.10;99.90;;;;;;5079583;28;20031;-61
2022/05/31 04:36:47;;;;;;;1.93;1.53;;;10.10;99.90;;;;;;5080257;28;20309;-61
2022/05/31 04:39:12;;;;;;;2.73;1.73;;;10.10;99.90;;;;;;5097082;28;20031;-61
2022/05/31 04:41:38;;;;;;;3.27;1.53;;;10.20;99.90;;;;;;5096980;28;20031;-60
2022/05/31 04:44:04;;;;;;;3.63;1.97;;;10.20;99.90;;;;;;5097968;28;20052;-60
2022/05/31 04:46:31;;;;;;;;;;;10.30;99.90;;;;;;5097895;28;20020;-61
2022/05/31 04:48:58;;;;;;;3.15;1.67;;;10.30;99.90;;;;;;5096858;28;19957;-61
2022/05/31 04:51:24;;;;;;;2.40;1.80;;;10.40;99.90;;;;;;5097334;28;20081;-61
2022/05/31 04:53:50;;;;;;;3.40;1.42;;;10.40;99.90;;;;;;5097811;28;20073;-60
2022/05/31 04:56:19;;;;;;;4.53;2.00;;;10.50;99.90;;;;;;5097017;28;20076;-61
2022/05/31 04:58:50;;;;;;;4.07;1.70;;;10.60;99.90;;;;;;5099125;28;20103;-58
2022/05/31 05:01:16;;;;;;;3.13;1.70;;;10.70;99.90;;;;;;5098824;28;20020;-61
2022/05/31 05:03:43;;;;;;;2.63;1.67;;;10.70;99.90;;;;;;5080885;28;20141;-59
2022/05/31 05:06:10;;;;;;;5.32;1.70;;;10.80;99.90;;;;;;5099797;28;20401;-61
2022/05/31 05:08:37;;;;;;;4.35;1.83;;;10.90;99.90;;;;;;5100103;28;20020;-62
2022/05/31 05:11:06;;;;;;;4.25;2.08;;;11.00;99.90;;;;;;5099525;28;20027;-62
2022/05/31 05:13:32;;;;;;;3.50;1.98;;;11.10;99.90;;;;;;5080661;28;20061;-61
2022/05/31 05:15:59;;;;;;;3.65;1.50;;;11.10;99.90;;;;;;5097243;28;20032;-62
2022/05/31 05:18:26;;;;;;;2.58;1.75;;;11.20;99.90;;;;;;5079690;28;20039;-61
2022/05/31 05:20:52;;;;;;;3.92;2.92;;;11.30;99.90;;;;;;5096303;28;20028;-61
2022/05/31 05:23:18;;;;;;;4.38;2.45;;;11.40;99.90;;;;;;5096182;28;20055;-61
2022/05/31 05:25:51;;;;;;;2.63;1.67;;;11.50;99.90;;;;;;5078542;28;20028;-62
2022/05/31 05:31:02;;;;;;;4.28;1.90;;;11.80;99.90;;;;;;5096903;28;20097;-61
2022/05/31 05:33:29;;;;;;;2.08;1.52;;;12.10;99.90;;;;;;5096960;28;20052;-61
2022/05/31 05:35:54;;;;;;;1.83;1.40;;;12.30;99.90;;;;;;5095915;28;20389;-61
2022/05/31 05:38:20;;;;;;;3.37;1.80;;;12.40;99.90;;;;;;5095514;28;20031;-62
2022/05/31 05:40:45;;;;;;;3.93;2.03;;;12.40;99.90;;;;;;5095910;28;20056;-62
2022/05/31 05:43:12;;;;;;;2.55;1.75;;;12.50;99.90;;;;;;5096294;28;20031;-61
2022/05/31 05:45:37;;;;;;;;;;;12.70;99.90;;;;;;5096334;28;20116;-62
2022/05/31 05:48:04;;;;;;;3.00;1.80;;;12.70;99.90;;;;;;5076999;28;20015;-60
2022/05/31 05:50:30;;;;;;;3.90;1.50;;;12.90;99.90;;;;;;5096046;28;20367;-61
2022/05/31 05:52:59;;;;;;;3.45;1.77;;;13.10;99.90;;;;;;5095381;28;20099;-61
2022/05/31 05:55:24;;;;;;;3.10;1.50;;;13.30;99.90;;;;;;5094528;28;20031;-62
2022/05/31 05:57:50;;;;;;;5.20;1.85;;;13.50;99.90;;;;;;5094993;28;20024;-62
2022/05/31 06:00:16;;;;;;;2.97;1.40;;;13.60;99.90;;;;;;5094446;28;20103;-63
2022/05/31 06:02:45;;;;;;;3.45;1.60;;;13.70;99.90;;;;;;5095042;28;20023;-62
2022/05/31 06:05:16;;;;;;;3.33;1.80;;;13.90;99.90;;;;;;5095072;28;20045;-62
2022/05/31 06:07:53;;;;;;;5.50;1.90;;;13.90;99.90;;;;;;5095444;28;20024;-62
2022/05/31 06:10:44;;;;;;;3.55;1.65;;;14.00;99.90;;;;;;5095086;28;20032;-63
2022/05/31 06:13:18;;;;;;;2.22;1.58;;;14.10;99.90;;;;;;5095123;28;20379;-61
2022/05/31 06:15:49;;;;;;;5.03;1.70;;;14.20;99.90;;;;;;5094955;28;20032;-62
2022/05/31 06:18:21;;;;;;;3.50;1.70;;;14.50;99.90;;;;;;5094095;28;20161;-62
2022/05/31 06:20:53;;;;;;;4.38;1.60;;;14.50;99.90;;;;;;5094039;28;20026;-63
2022/05/31 06:23:20;;;;;;;6.72;1.80;;;14.70;99.90;;;;;;5093888;28;20031;-60
2022/05/31 06:25:45;;;;;;;4.75;1.60;;;14.80;99.80;;;;;;5093809;28;20115;-60
2022/05/31 06:28:11;;;;;;;4.05;1.45;;;14.80;99.70;;;;;;5093447;28;20107;-61
2022/05/31 06:30:37;;;;;;;4.83;1.87;;;14.80;99.50;;;;;;5094224;28;20405;-62
2022/05/31 06:33:03;;;;;;;;;;;14.90;99.30;;;;;;5094134;28;20323;-62
2022/05/31 06:35:29;;;;;;;3.90;1.92;;;15.00;99.00;;;;;;5093789;28;19908;-63
2022/05/31 06:37:55;;;;;;;3.27;1.57;;;15.20;98.90;;;;;;5075410;28;20032;-62
2022/05/31 06:40:20;;;;;;;5.70;1.70;;;15.40;98.20;;;;;;5093608;28;20262;-60
2022/05/31 06:42:46;;;;;;;4.07;1.57;;;15.40;97.70;;;;;;5093472;28;20032;-63
2022/05/31 06:45:11;;;;;;;3.73;2.33;;;15.60;97.80;;;;;;5093481;28;20341;-63
2022/05/31 06:47:37;;;;;;;2.90;1.50;;;15.40;97.20;;;;;;5093526;28;20466;-62
2022/05/31 06:50:03;;;;;;;5.07;2.17;;;15.40;97.40;;;;;;5093392;28;20039;-62
2022/05/31 06:57:57;;;;;;;7.32;2.55;;;15.70;96.90;;;;;;5093473;28;20058;-63
2022/05/31 07:00:23;;;;;;;4.55;1.92;;;15.80;96.20;;;;;;5093315;28;20016;-61
2022/05/31 07:02:50;;;;;;;5.78;2.63;;;15.80;96.40;;;;;;5093267;28;20028;-61
2022/05/31 07:05:17;;;;;;;5.53;1.80;;;15.80;96.50;;;;;;5074899;28;20054;-61
2022/05/31 07:07:43;;;;;;;3.67;1.63;;;16.00;96.20;;;;;;5092938;28;20465;-62
2022/05/31 07:10:09;;;;;;;3.20;1.65;;;15.90;96.40;;;;;;5093358;28;20051;-61
2022/05/31 07:12:35;;;;;;;2.42;1.50;;;16.00;96.40;;;;;;5093119;28;20035;-62
2022/05/31 07:15:01;;;;;;;4.65;1.48;;;16.00;96.20;;;;;;5092735;28;20028;-62
2022/05/31 07:17:27;;;;;;;;;;;15.90;96.40;;;;;;5093390;28;20394;-61
2022/05/31 07:19:52;;;;;;;3.55;1.70;;;15.80;96.50;;;;;;5093024;28;19904;-62
2022/05/31 07:22:18;;;;;;;6.50;1.70;;;15.70;96.60;;;;;;5093129;28;20024;-62
2022/05/31 07:24:44;;;;;;;2.75;1.98;;;15.80;96.60;;;;;;5093250;28;20081;-61
2022/05/31 07:27:10;;;;;;;;;;;15.90;96.40;;;;;;5093710;28;20111;-61
2022/05/31 07:29:36;;;;;;;5.55;1.58;;;16.10;96.30;;;;;;5092824;28;19954;-62
2022/05/31 07:32:01;;;;;;;6.53;1.60;;;16.30;96.00;;;;;;5092945;28;20020;-61
2022/05/31 07:34:27;;;;;;;3.50;1.60;;;16.40;95.70;;;;;;5092717;28;20258;-61
2022/05/31 07:36:53;;;;;;;2.83;1.63;;;16.50;95.70;;;;;;5093163;28;20103;-62
2022/05/31 07:39:20;;;;;;;4.95;2.13;;;16.60;95.30;;;;;;5093094;28;20398;-61
2022/05/31 07:41:46;;;;;;;3.47;1.90;;;16.50;95.40;;;;;;5096939;28;20054;-61
2022/05/31 07:44:16;;;;;;;3.33;1.73;;;16.50;95.60;;;;;;5097000;28;20020;-63
2022/05/31 07:46:42;;;;;;;5.18;3.63;;;16.60;95.20;;;;;;5096954;28;20367;-62
2022/05/31 07:49:08;;;;;;;3.30;1.73;;;16.60;95.20;;;;;;5097440;28;20044;-61
2022/05/31 07:51:33;;;;;;;6.55;1.85;;;16.50;95.30;;;;;;5078842;28;20028;-62
2022/05/31 07:53:59;;;;;;;2.67;1.60;;;16.60;95.30;;;;;;5097253;28;20043;-62
2022/05/31 07:56:27;;;;;;;6.00;2.25;;;16.80;95.00;;;;;;5097239;28;20077;-61
2022/05/31 07:58:52;;;;;;;3.58;1.60;;;17.00;94.50;;;;;;5097543;28;20028;-62
2022/05/31 08:01:25;;;;;;;3.55;1.75;;;17.20;94.40;;;;;;5079105;28;20034;-61
2022/05/31 08:03:52;;;;;;;4.13;1.67;;;17.50;93.60;;;;;;5097468;28;20054;-62
2022/05/31 08:06:20;;;;;;;4.45;1.75;;;18.00;93.10;;;;;;5078475;28;20034;-62
2022/05/31 08:08:47;;;;;;;4.03;1.75;;;18.70;92.10;;;;;;5096661;28;20052;-63
2022/05/31 08:11:33;;;;;;;6.00;1.90;;;20.20;89.90;;;;;;5096479;28;20017;-62
2022/05/31 08:14:01;;;;;;;3.30;1.90;;;21.70;84.10;;;;;;5096133;28;20032;-62
2022/05/31 08:16:28;;;;;;;3.30;2.10;;;21.90;81.10;;;;;;5077968;28;20035;-62
2022/05/31 08:18:55;;;;;;;3.63;2.00;;;21.80;80.30;;;;;;5096498;28;20031;-62
2022/05/31 08:21:27;;;;;;;4.38;1.63;;;21.70;79.80;;;;;;5096375;28;20470;-63
2022/05/31 08:23:57;;;;;;;4.13;2.17;;;21.70;79.40;;;;;;5096677;28;20020;-61
2022/05/31 08:26:23;;;;;;;6.72;1.92;;;21.90;78.10;;;;;;5096289;28;20039;-60
2022/05/31 08:28:49;;;;;;;3.78;1.95;;;21.50;78.50;;;;;;5096514;28;20024;-63
2022/05/31 08:31:17;;;;;;;;;;;21.40;78.80;;;;;;5096722;28;20035;-62
2022/05/31 08:33:42;;;;;;;7.65;1.63;;;21.60;78.20;;;;;;5096612;28;20395;-61
2022/05/31 08:36:08;;;;;;;3.75;1.88;;;22.00;77.90;;;;;;5096644;28;20059;-62
2022/05/31 08:38:34;;;;;;;;;;;22.00;77.40;;;;;;5096734;28;20033;-62
2022/05/31 08:41:18;;;;;;;4.07;1.67;;;22.20;77.60;;;;;;5077798;28;20241;-61
2022/05/31 08:43:46;;;;;;;7.10;1.70;;;22.20;77.30;;;;;;5096377;28;20478;-63
2022/05/31 08:46:22;;;;;;;5.45;2.00;;;21.90;77.60;;;;;;5095840;28;20036;-62
2022/05/31 08:48:56;;;;;;;6.20;1.73;;;21.70;77.70;;;;;;5096259;28;20107;-64
2022/05/31 08:51:54;;;;;;;8.48;1.95;;;21.70;78.30;;;;;;5095905;28;20020;-65
2022/05/31 08:57:19;;;;;;;5.40;2.17;;;21.60;79.20;;;;;;5096354;28;19914;-62
2022/05/31 08:59:55;;;;;;;3.30;1.90;;;21.70;78.50;;;;;;5096548;28;20028;-63
2022/05/31 09:02:21;;;;;;;4.03;2.17;;;21.80;78.40;;;;;;5095934;28;20107;-62
2022/05/31 09:05:04;;;;;;;4.03;1.77;;;21.70;78.90;;;;;;5095637;28;20450;-63
2022/05/31 09:07:47;;;;;;;4.00;1.70;;;21.70;79.40;;;;;;5095666;28;20047;-63
2022/05/31 09:10:40;;;;;;;6.88;2.10;;;22.90;77.50;;;;;;5096175;28;20016;-61
2022/05/31 09:13:17;;;;;;;3.92;1.60;;;24.30;75.00;;;;;;5095575;28;20025;-61
2022/05/31 09:15:49;;;;;;;2.78;1.48;;;25.50;72.10;;;;;;5095819;28;20052;-62
2022/05/31 09:18:42;;;;;;;3.30;1.52;;;26.00;69.50;;;;;;5077231;28;20031;-63
2022/05/31 09:21:27;;;;;;;2.58;1.20;;;26.90;67.10;;;;;;5095539;28;20062;-64
2022/05/31 09:23:55;;;;;;;2.72;1.42;;;27.70;64.40;;;;;;5095790;28;20020;-61
2022/05/31 09:26:26;;;;;;;3.45;1.17;;;28.80;61.80;;;;;;5095263;28;20021;-63
2022/05/31 09:28:58;;;;;;;2.15;1.50;;;30.30;59.40;;;;;;5095477;28;20047;-62
2022/05/31 09:31:43;;;;;;;3.83;1.30;;;30.80;57.30;;;;;;5095335;28;20555;-63
2022/05/31 09:34:46;;;;;;;2.40;1.30;;;31.50;56.70;;;;;;5095258;28;20034;-65
2022/05/31 09:37:33;;;;;;;2.47;1.35;;;33.00;53.40;;;;;;5094602;28;20056;-64
2022/05/31 09:40:31;;;;;;;4.63;1.80;;;33.40;52.20;;;;;;5095452;28;20035;-62
2022/05/31 09:43:07;;;;;;;3.65;1.15;;;32.80;50.90;;;;;;5012851;28;20157;-63
2022/05/31 09:45:38;;;;;;;3.75;1.40;;;31.40;51.90;;;;;;5012543;28;20440;-63
2022/05/31 09:48:05;;;;;;;1.70;1.40;;;30.70;52.60;;;;;;5012749;28;20038;-63
2022/05/31 09:50:31;;;;;;;2.72;1.58;;;31.00;52.50;;;;;;5012377;28;20104;-61
2022/05/31 09:52:57;;;;;;;2.92;1.60;;;31.30;52.50;;;;;;5012988;28;20068;-62
2022/05/31 09:58:24;;;;;;;2.63;1.40;;;30.00;52.70;;;;;;5012473;28;20069;-63
2022/05/31 10:01:12;;;;;;;4.47;1.48;;;29.50;53.30;;;;;;5012497;28;20044;-63
2022/05/31 10:03:40;;;;;;;3.13;1.30;;;30.80;52.00;;;;;;5012244;28;20041;-64
2022/05/31 10:06:06;;;;;;;2.92;1.50;;;31.50;51.20;;;;;;5012489;28;20125;-64
2022/05/31 10:08:34;;;;;;;1.83;1.20;;;31.10;50.40;;;;;;5012895;28;20033;-64
2022/05/31 10:11:08;;;;;;;1.30;1.00;;;30.20;51.40;;;;;;4995939;28;20077;-65
2022/05/31 10:13:54;;;;;;;1.55;0.90;;;30.00;51.70;;;;;;4996070;28;20065;-64
2022/05/31 10:16:30;;;;;;;2.85;1.27;;;30.80;51.20;;;;;;5012397;28;20108;-65
2022/05/31 10:18:58;;;;;;;1.52;1.10;;;32.30;49.40;;;;;;5041386;28;20093;-64
2022/05/31 10:21:32;;;;;;;1.75;1.10;;;33.00;48.90;;;;;;5093822;28;20062;-64
2022/05/31 10:24:20;;;;;;;1.63;0.93;;;34.20;48.00;;;;;;5093790;28;20027;-65
2022/05/31 10:27:05;;;;;;;2.88;1.15;;;34.10;47.00;;;;;;5093879;28;20028;-65
2022/05/31 10:29:39;;;;;;;2.53;1.10;;;33.40;47.10;;;;;;5093710;28;20024;-65
2022/05/31 10:32:23;;;;;;;2.35;1.10;;;33.50;46.70;;;;;;5093942;28;20028;-65
2022/05/31 10:34:48;;;;;;;1.92;1.17;;;32.80;47.20;;;;;;5096649;28;20063;-64
2022/05/31 10:37:27;;;;;;;2.17;1.10;;;31.80;48.50;;;;;;5097097;28;20028;-62
2022/05/31 10:40:09;;;;;;;3.88;1.20;;;30.90;48.90;;;;;;5095642;28;20478;-63
2022/05/31 10:42:41;;;;;;;3.40;1.50;;;29.50;50.00;;;;;;5095733;28;20062;-62
2022/05/31 10:45:08;;;;;;;2.88;1.48;;;28.90;50.70;;;;;;5094519;28;20016;-64
2022/05/31 10:47:34;;;;;;;3.05;1.17;;;28.20;51.90;;;;;;5094335;28;20027;-60
2022/05/31 10:50:04;;;;;;;2.53;1.10;;;27.90;51.60;;;;;;5095918;28;20024;-62
2022/05/31 10:52:46;;;;;;;2.38;1.15;;;27.10;52.00;;;;;;5094059;28;20038;-63
2022/05/31 10:55:51;;;;;;;3.10;1.20;;;26.70;51.10;;;;;;5094683;28;20516;-61
2022/05/31 10:58:36;;;;;;;6.38;1.83;;;26.80;51.60;;;;;;5095553;28;20494;-61
2022/05/31 11:01:19;;;;;;;9.95;1.90;;;27.10;51.70;;;;;;5095768;28;20465;-61
2022/05/31 11:04:15;;;;;;;34.42;2.78;;;27.50;49.80;;;;;;5096710;28;20106;-59
2022/05/31 11:07:13;;;;;;;8.00;1.80;;;28.10;49.00;;;;;;5094381;28;20024;-63
2022/05/31 11:13:06;;;;;;;18.48;2.58;;;27.30;50.10;;;;;;5094082;28;20042;-64
2022/05/31 11:15:58;;;;;;;2.17;1.10;;;26.70;50.60;;;;;;5093861;28;20398;-64
2022/05/31 11:18:42;;;;;;;2.38;1.00;;;26.40;50.20;;;;;;5094764;28;20028;-63
2022/05/31 11:21:27;;;;;;;4.00;1.20;;;26.20;49.80;;;;;;5096059;28;20555;-62
2022/05/31 11:24:37;;;;;;;2.95;1.10;;;25.80;50.00;;;;;;5093806;28;20028;-64
2022/05/31 11:27:40;;;;;;;6.38;1.77;;;25.70;51.50;;;;;;5094969;28;20020;-65
2022/05/31 11:30:21;;;;;;;2.55;1.05;;;25.80;51.80;;;;;;5094052;28;20327;-64
2022/05/31 11:32:56;;;;;;;4.05;1.58;;;26.00;52.10;;;;;;5075848;28;20028;-64
2022/05/31 11:35:48;;;;;;;3.58;1.20;;;25.60;51.80;;;;;;5094110;28;20467;-65
2022/05/31 11:38:25;;;;;;;4.32;1.13;;;25.30;51.80;;;;;;5093435;28;20055;-65
2022/05/31 11:41:05;;;;;;;3.40;1.10;;;25.10;52.10;;;;;;5074991;28;20024;-63
2022/05/31 11:43:43;;;;;;;2.10;1.20;;;24.80;51.90;;;;;;5093029;28;20076;-63
2022/05/31 11:46:26;;;;;;;5.53;1.13;;;24.60;52.50;;;;;;5093242;28;20032;-63
2022/05/31 11:49:11;;;;;;;2.78;1.20;;;24.40;53.00;;;;;;5093196;28;20028;-65
2022/05/31 11:51:56;;;;;;;1.95;0.95;;;24.50;53.60;;;;;;5093055;28;20016;-63
2022/05/31 11:58:16;;;;;;;4.15;1.30;;;24.30;54.00;;;;;;5010616;28;20076;-62
2022/05/31 12:00:45;;;;;;;3.78;1.27;;;24.40;56.50;;;;;;5011370;28;20479;-64
2022/05/31 12:03:20;;;;;;;2.20;1.38;;;24.30;56.20;;;;;;5010938;28;20049;-64
2022/05/31 12:05:52;;;;;;;2.42;1.30;;;24.30;54.20;;;;;;5010736;28;20100;-63
2022/05/31 12:08:29;;;;;;;4.25;1.40;;;24.40;52.70;;;;;;5011303;28;20080;-64
2022/05/31 12:11:01;;;;;;;3.70;1.10;;;24.30;53.00;;;;;;5011046;28;20034;-62
2022/05/31 12:13:27;;;;;;;5.45;1.30;;;24.30;53.30;;;;;;5010517;28;20583;-64
2022/05/31 12:15:55;;;;;;;3.97;1.05;;;24.30;53.70;;;;;;5010300;28;20046;-64
2022/05/31 12:18:34;;;;;;;2.92;1.17;;;24.30;53.70;;;;;;5010898;28;20030;-62
2022/05/31 12:21:09;;;;;;;4.13;1.50;;;24.40;54.60;;;;;;5010594;28;20033;-62
2022/05/31 12:23:54;;;;;;;2.03;1.25;;;24.50;53.10;;;;;;5010797;28;20026;-63
2022/05/31 12:26:22;;;;;;;3.53;1.30;;;24.50;52.80;;;;;;5012567;28;20062;-63
2022/05/31 12:29:13;;;;;;;3.63;1.25;;;24.40;53.30;;;;;;5014269;28;20396;-63
2022/05/31 12:31:40;;;;;;;3.35;1.10;;;24.60;52.80;;;;;;4991022;28;20045;-64
2022/05/31 12:34:19;;;;;;;3.22;1.70;;;24.50;53.00;;;;;;5078151;28;20115;-66
2022/05/31 12:37:14;;;;;;;5.97;1.60;;;24.40;54.00;;;;;;5097254;28;20347;-64
2022/05/31 12:39:46;;;;;;;2.88;1.30;;;24.40;53.00;;;;;;5078859;28;20112;-64
2022/05/31 12:42:33;;;;;;;4.75;3.13;;;24.50;52.60;;;;;;5095981;28;20391;-64
2022/05/31 12:45:21;;;;;;;4.30;1.20;;;24.40;52.70;;;;;;5095977;28;20478;-65
2022/05/31 12:47:55;;;;;;;2.25;1.17;;;24.30;52.50;;;;;;5096145;28;20091;-65
2022/05/31 12:50:45;;;;;;;3.22;1.17;;;24.30;52.90;;;;;;5096102;28;20016;-65
2022/05/31 12:53:23;;;;;;;2.60;1.20;;;24.40;52.30;;;;;;5096177;28;20031;-64
2022/05/31 12:55:53;;;;;;;5.20;1.10;;;24.50;52.00;;;;;;5077662;28;20032;-62
2022/05/31 12:58:32;;;;;;;1.83;1.13;;;24.60;52.30;;;;;;5095937;28;20092;-64
2022/05/31 13:01:27;;;;;;;3.67;1.30;;;24.80;51.80;;;;;;5096171;28;20095;-63
2022/05/31 13:03:54;;;;;;;5.53;1.05;;;24.90;51.90;;;;;;5095915;28;20016;-63
2022/05/31 13:06:29;;;;;;;4.55;1.30;;;24.80;51.80;;;;;;5096070;28;20022;-63
2022/05/31 13:09:10;;;;;;;3.17;1.02;;;24.70;51.60;;;;;;5095860;28;20028;-64
2022/05/31 13:20:13;;;;;;;2.13;1.30;;;24.40;51.50;;;;;;5096047;28;20503;-62
2022/05/31 13:22:45;;;;;;;3.75;1.45;;;24.50;51.60;;;;;;5095662;28;20402;-62
2022/05/31 13:25:22;;;;;;;4.75;1.30;;;24.50;52.20;;;;;;5096155;28;20386;-64
2022/05/31 13:27:52;;;;;;;;;;;24.60;52.00;;;;;;5096679;28;20032;-63
2022/05/31 13:30:22;;;;;;;3.53;1.50;;;24.60;52.40;;;;;;5078022;28;19953;-63
2022/05/31 13:32:48;;;;;;;5.25;1.55;;;24.60;52.90;;;;;;5096272;28;20513;-64
2022/05/31 13:35:15;;;;;;;;;;;24.60;53.20;;;;;;5096065;28;20028;-65
2022/05/31 13:38:22;;;;;;;2.35;1.50;;;24.40;53.30;;;;;;5095109;28;20009;-62
2022/05/31 13:40:51;;;;;;;4.50;1.05;;;24.20;54.30;;;;;;5096673;28;20020;-64
2022/05/31 13:43:42;;;;;;;2.10;1.40;;;24.00;53.80;;;;;;5095036;28;20017;-65
2022/05/31 13:46:22;;;;;;;4.28;1.75;;;23.90;54.20;;;;;;5096048;28;20363;-62